Terminal Aerodrome Forecast
Issued by NWS

Home | Current Version | Previous Version | Text Only | Print | Product List | Glossary On
Versions: 1 2 3 4 5 6 7 8 9 10 11 12 13 14 15 16 17
000
FTUS45 KABQ 272320
TAFAEG
TAF
KAEG 272320Z 2800/2824 26012G20KT P6SM VCSH SCT100
      TEMPO 2800/2802 17020G30KT
     FM280200 23012G18KT P6SM SCT120
     FM280300 22011KT P6SM SCT130
     FM281000 20006KT P6SM SKC
     FM281700 23011KT P6SM SKC
     FM282000 26015G25KT P6SM SKC=

USA.gov is the U.S. government's official web portal to all federal, state and local government web resources and services.